createdAt,value
2023-04-28T00:00:28.197Z,23.94
2023-04-28T00:01:28.267Z,23.94
2023-04-28T00:02:28.349Z,23.95
2023-04-28T00:03:28.534Z,23.94
2023-04-28T00:04:28.412Z,23.95
2023-04-28T00:05:28.397Z,23.95
2023-04-28T00:06:28.365Z,23.94
2023-04-28T00:07:28.436Z,23.92
2023-04-28T00:08:28.436Z,23.92
2023-04-28T00:09:28.496Z,23.92
2023-04-28T00:10:28.553Z,23.91
2023-04-28T00:11:28.596Z,23.91
2023-04-28T00:12:28.653Z,23.92
2023-04-28T00:13:28.735Z,23.93
2023-04-28T00:14:28.796Z,23.94
2023-04-28T00:15:28.879Z,23.96
2023-04-28T00:16:28.953Z,23.99
2023-04-28T00:17:29.067Z,24.00
2023-04-28T00:18:29.035Z,24.00
2023-04-28T00:19:29.061Z,24.00
2023-04-28T00:20:29.150Z,24.01
2023-04-28T00:21:29.193Z,24.01
2023-04-28T00:22:29.273Z,24.01
2023-04-28T00:23:29.315Z,23.99
2023-04-28T00:24:29.349Z,23.99
2023-04-28T00:25:29.418Z,23.99
2023-04-28T00:26:29.493Z,23.99
2023-04-28T00:27:29.498Z,23.98
2023-04-28T00:28:34.011Z,23.98
2023-04-28T00:29:30.549Z,23.98
2023-04-28T00:30:29.622Z,24.00
2023-04-28T00:31:29.627Z,23.99
2023-04-28T00:32:29.631Z,23.99
2023-04-28T00:33:29.647Z,24.00
2023-04-28T00:34:30.623Z,23.99
2023-04-28T00:35:29.726Z,23.98
2023-04-28T00:36:29.689Z,23.98
2023-04-28T00:37:29.717Z,23.99
2023-04-28T00:38:29.752Z,24.00
2023-04-28T00:39:29.764Z,23.99
2023-04-28T00:40:29.810Z,23.99
2023-04-28T00:41:29.814Z,24.00
2023-04-28T00:42:29.842Z,24.02
2023-04-28T00:43:29.863Z,24.03
2023-04-28T00:44:29.908Z,24.04
2023-04-28T00:45:30.027Z,24.03
2023-04-28T00:46:30.009Z,24.02
2023-04-28T00:47:30.012Z,24.02
2023-04-28T00:48:30.012Z,24.02
2023-04-28T00:49:30.037Z,24.02
2023-04-28T00:50:30.073Z,24.01
2023-04-28T00:51:30.084Z,24.01
2023-04-28T00:52:30.122Z,24.01
2023-04-28T00:53:30.117Z,24.00
2023-04-28T00:54:30.152Z,24.00
2023-04-28T00:55:30.224Z,24.01
2023-04-28T00:56:30.218Z,24.00
2023-04-28T00:57:30.261Z,24.00
2023-04-28T00:58:30.296Z,24.02
2023-04-28T00:59:30.308Z,24.02
2023-04-28T01:00:30.343Z,24.01
2023-04-28T01:01:30.420Z,24.00
2023-04-28T01:02:30.514Z,23.98
2023-04-28T01:03:30.496Z,23.98
2023-04-28T01:04:30.549Z,23.99
2023-04-28T01:05:30.485Z,24.01
2023-04-28T01:06:30.511Z,24.00
2023-04-28T01:07:30.590Z,24.00
2023-04-28T01:08:30.581Z,23.99
2023-04-28T01:09:30.610Z,23.99
2023-04-28T01:10:30.653Z,23.98
2023-04-28T01:11:30.655Z,23.98
2023-04-28T01:12:30.689Z,23.98
2023-04-28T01:13:30.736Z,23.99
2023-04-28T01:14:30.765Z,23.99
2023-04-28T01:15:30.798Z,24.00
2023-04-28T01:16:30.863Z,23.99
2023-04-28T01:17:30.879Z,23.99
2023-04-28T01:18:30.876Z,24.00
2023-04-28T01:19:30.906Z,23.99
2023-04-28T01:20:30.946Z,23.97
2023-04-28T01:21:30.942Z,23.97
2023-04-28T01:22:30.989Z,23.96
2023-04-28T01:23:31.020Z,23.98
2023-04-28T01:24:31.031Z,23.97
2023-04-28T01:25:31.054Z,23.98
2023-04-28T01:26:31.092Z,23.99
2023-04-28T01:27:31.133Z,23.98
2023-04-28T01:28:31.138Z,23.98
2023-04-28T01:29:31.164Z,23.98
2023-04-28T01:30:31.196Z,23.99
2023-04-28T01:31:31.342Z,23.99
2023-04-28T01:32:31.361Z,24.00
2023-04-28T01:33:31.281Z,24.00
2023-04-28T01:34:31.314Z,24.00
2023-04-28T01:35:31.370Z,23.99
2023-04-28T01:36:31.383Z,24.00
2023-04-28T01:37:31.434Z,24.00
2023-04-28T01:38:31.462Z,24.01
2023-04-28T01:39:31.521Z,23.99
2023-04-28T01:40:31.499Z,24.00
2023-04-28T01:41:31.521Z,24.00
2023-04-28T01:42:31.564Z,23.99
2023-04-28T01:43:31.573Z,24.00
2023-04-28T01:44:31.613Z,24.00
2023-04-28T01:45:31.643Z,24.00
2023-04-28T01:46:31.815Z,24.00
2023-04-28T01:47:31.734Z,23.99
2023-04-28T01:48:31.702Z,23.98
2023-04-28T01:49:31.747Z,23.98
2023-04-28T01:50:31.801Z,23.98
2023-04-28T01:51:31.854Z,23.98
2023-04-28T01:52:31.885Z,23.98
2023-04-28T01:53:31.894Z,23.99
2023-04-28T01:54:31.920Z,24.00
2023-04-28T01:55:31.932Z,24.00
2023-04-28T01:56:31.972Z,24.00
2023-04-28T01:57:31.988Z,24.00
2023-04-28T01:58:32.047Z,23.99
2023-04-28T01:59:32.112Z,23.99
2023-04-28T02:00:32.186Z,23.99
2023-04-28T02:01:32.269Z,23.99
2023-04-28T02:02:32.360Z,23.99
2023-04-28T02:03:32.459Z,23.99
2023-04-28T02:04:32.441Z,23.99
2023-04-28T02:05:32.466Z,24.00
2023-04-28T02:06:32.497Z,23.99
2023-04-28T02:07:32.552Z,23.99
2023-04-28T02:08:32.641Z,23.99
2023-04-28T02:09:32.704Z,23.98
2023-04-28T02:10:32.811Z,23.97
2023-04-28T02:11:32.798Z,23.97
2023-04-28T02:12:32.880Z,23.98
2023-04-28T02:13:32.905Z,23.99
2023-04-28T02:14:32.957Z,23.99
2023-04-28T02:15:33.161Z,23.99
2023-04-28T02:16:33.156Z,23.99
2023-04-28T02:17:33.178Z,23.98
2023-04-28T02:18:33.198Z,23.98
2023-04-28T02:19:33.250Z,23.98
2023-04-28T02:20:33.544Z,23.99
2023-04-28T02:21:33.364Z,23.98
2023-04-28T02:22:33.428Z,23.98
2023-04-28T02:23:33.482Z,23.98
2023-04-28T02:24:33.547Z,23.99
2023-04-28T02:25:33.604Z,24.00
2023-04-28T02:26:33.650Z,24.01
2023-04-28T02:27:33.668Z,24.02
2023-04-28T02:28:33.684Z,24.02
2023-04-28T02:29:33.709Z,24.02
2023-04-28T02:30:33.750Z,24.00
2023-04-28T02:31:33.813Z,24.00
2023-04-28T02:32:33.870Z,24.00
2023-04-28T02:33:33.823Z,23.99
2023-04-28T02:34:33.866Z,24.00
2023-04-28T02:35:33.890Z,24.01
2023-04-28T02:36:33.930Z,24.03
2023-04-28T02:37:33.941Z,24.05
2023-04-28T02:38:33.986Z,24.05
2023-04-28T02:39:34.009Z,24.04
2023-04-28T02:40:34.059Z,24.02
2023-04-28T02:41:34.073Z,24.01
2023-04-28T02:42:34.118Z,23.99
2023-04-28T02:43:34.153Z,23.95
2023-04-28T02:44:34.188Z,23.89
2023-04-28T02:45:34.199Z,23.83
2023-04-28T02:46:34.316Z,23.78
2023-04-28T02:47:34.309Z,23.77
2023-04-28T02:48:34.328Z,23.73
2023-04-28T02:49:34.359Z,23.70
2023-04-28T02:50:34.448Z,23.68
2023-04-28T02:51:34.677Z,23.66
2023-04-28T02:52:34.575Z,23.65
2023-04-28T02:53:34.665Z,23.65
2023-04-28T02:54:34.745Z,23.66
2023-04-28T02:55:34.824Z,23.67
2023-04-28T02:56:34.906Z,23.66
2023-04-28T02:57:34.998Z,23.70
2023-04-28T02:58:35.011Z,23.72
2023-04-28T02:59:35.084Z,23.74
2023-04-28T03:00:35.160Z,23.75
2023-04-28T03:01:35.276Z,23.77
2023-04-28T03:02:35.387Z,23.78
2023-04-28T03:03:35.487Z,23.79
2023-04-28T03:04:35.539Z,23.80
2023-04-28T03:05:35.513Z,23.82
2023-04-28T03:06:35.584Z,23.83
2023-04-28T03:07:35.656Z,23.84
2023-04-28T03:10:16.696Z,23.79
2023-04-28T03:11:16.727Z,23.83
2023-04-28T03:12:16.754Z,23.84
2023-04-28T03:13:16.726Z,23.85
2023-04-28T03:14:16.968Z,23.86
2023-04-28T03:15:16.765Z,23.86
2023-04-28T03:16:16.823Z,23.86
2023-04-28T03:17:16.736Z,23.87
2023-04-28T03:18:16.737Z,23.87
2023-04-28T03:19:16.742Z,23.88
2023-04-28T03:20:16.736Z,23.89
2023-04-28T03:21:16.747Z,23.90
2023-04-28T03:22:16.752Z,23.90
2023-04-28T03:23:16.763Z,23.88
2023-04-28T03:24:17.099Z,23.85
2023-04-28T03:25:16.846Z,23.81
2023-04-28T03:26:16.892Z,23.75
2023-04-28T03:27:16.992Z,23.72
2023-04-28T03:28:17.023Z,23.67
2023-04-28T03:29:17.099Z,23.65
2023-04-28T03:30:17.171Z,23.62
2023-04-28T03:31:17.273Z,23.60
2023-04-28T03:32:17.404Z,23.57
2023-04-28T03:33:17.348Z,23.57
2023-04-28T03:34:17.487Z,23.56
2023-04-28T03:35:17.449Z,23.57
2023-04-28T03:36:17.488Z,23.57
2023-04-28T03:37:17.557Z,23.56
2023-04-28T03:38:17.593Z,23.56
2023-04-28T03:39:17.627Z,23.55
2023-04-28T03:40:17.687Z,23.56
2023-04-28T03:41:17.683Z,23.55
2023-04-28T03:42:17.726Z,23.52
2023-04-28T03:43:17.786Z,23.52
2023-04-28T03:44:17.976Z,23.52
2023-04-28T03:45:17.828Z,23.53
2023-04-28T03:46:17.949Z,23.53
2023-04-28T03:47:17.912Z,23.50
2023-04-28T03:48:18.032Z,23.48
2023-04-28T03:49:17.990Z,23.48
2023-04-28T03:50:17.994Z,23.47
2023-04-28T03:51:18.055Z,23.45
2023-04-28T03:52:18.057Z,23.44
2023-04-28T03:53:18.060Z,23.42
2023-04-28T03:54:18.248Z,23.44
2023-04-28T03:55:18.072Z,23.46
2023-04-28T03:56:18.076Z,23.49
2023-04-28T03:57:18.079Z,23.49
2023-04-28T03:58:18.883Z,23.52
2023-04-28T03:59:18.081Z,23.53
2023-04-28T04:00:18.068Z,23.55
2023-04-28T04:01:18.072Z,23.57
2023-04-28T04:02:18.159Z,23.58
2023-04-28T04:03:18.274Z,23.59
2023-04-28T04:04:18.456Z,23.60
2023-04-28T04:05:18.165Z,23.61
2023-04-28T04:06:18.084Z,23.62
2023-04-28T04:07:18.081Z,23.63
2023-04-28T04:08:18.089Z,23.63
2023-04-28T04:09:18.098Z,23.64
2023-04-28T04:10:18.126Z,23.65
2023-04-28T04:11:18.106Z,23.65
2023-04-28T04:12:18.089Z,23.65
2023-04-28T04:13:18.090Z,23.66
2023-04-28T04:14:18.230Z,23.66
2023-04-28T04:15:18.065Z,23.66
2023-04-28T04:16:18.165Z,23.67
2023-04-28T04:17:18.971Z,23.67
2023-04-28T04:18:18.180Z,23.68
2023-04-28T04:19:18.078Z,23.68
2023-04-28T04:20:18.894Z,23.68
2023-04-28T04:21:18.106Z,23.68
2023-04-28T04:22:18.898Z,23.68
2023-04-28T04:23:18.115Z,23.68
2023-04-28T04:24:18.303Z,23.67
2023-04-28T04:25:18.110Z,23.65
2023-04-28T04:26:18.130Z,23.60
2023-04-28T04:27:18.145Z,23.56
2023-04-28T04:28:18.132Z,23.51
2023-04-28T04:29:18.141Z,23.48
2023-04-28T04:30:18.138Z,23.47
2023-04-28T04:31:18.186Z,23.45
2023-04-28T04:32:18.155Z,23.44
2023-04-28T04:33:18.166Z,23.45
2023-04-28T04:34:18.331Z,23.45
2023-04-28T04:35:18.156Z,23.45
2023-04-28T04:36:18.153Z,23.44
2023-04-28T04:37:18.166Z,23.43
2023-04-28T04:38:18.168Z,23.42
2023-04-28T04:39:18.178Z,23.40
2023-04-28T04:40:18.171Z,23.40
2023-04-28T04:41:18.179Z,23.40
2023-04-28T04:42:25.256Z,23.41
2023-04-28T04:43:19.199Z,23.39
2023-04-28T04:44:18.397Z,23.39
2023-04-28T04:45:18.188Z,23.39
2023-04-28T04:46:18.232Z,23.39
2023-04-28T04:47:18.202Z,23.39
2023-04-28T04:48:18.185Z,23.37
2023-04-28T04:49:18.194Z,23.37
2023-04-28T04:50:18.193Z,23.36
2023-04-28T04:51:18.237Z,23.35
2023-04-28T04:52:18.218Z,23.33
2023-04-28T04:53:18.255Z,23.33
2023-04-28T04:54:18.233Z,23.31
2023-04-28T04:55:18.233Z,23.31
2023-04-28T04:56:18.245Z,23.30
2023-04-28T04:57:18.250Z,23.30
2023-04-28T04:58:18.263Z,23.29
2023-04-28T04:59:18.239Z,23.28
2023-04-28T05:00:18.248Z,23.27
2023-04-28T05:01:18.307Z,23.26
2023-04-28T05:02:18.432Z,23.26
2023-04-28T05:03:18.465Z,23.25
2023-04-28T05:04:18.755Z,23.24
2023-04-28T05:05:21.952Z,23.23
2023-04-28T05:06:18.408Z,23.21
2023-04-28T05:07:18.383Z,23.21
2023-04-28T05:08:18.393Z,23.19
2023-04-28T05:09:18.395Z,23.20
2023-04-28T05:10:18.423Z,23.20
2023-04-28T05:11:18.398Z,23.19
2023-04-28T05:12:18.400Z,23.17
2023-04-28T05:13:18.409Z,23.18
2023-04-28T05:14:18.715Z,23.17
2023-04-28T05:15:18.431Z,23.16
2023-04-28T05:16:18.422Z,23.16
2023-04-28T05:17:18.410Z,23.16
2023-04-28T05:18:18.416Z,23.15
2023-04-28T05:19:18.414Z,23.15
2023-04-28T05:20:18.415Z,23.15
2023-04-28T05:21:18.411Z,23.13
2023-04-28T05:22:18.417Z,23.13
2023-04-28T05:23:18.434Z,23.12
2023-04-28T05:24:18.728Z,23.11
2023-04-28T05:25:18.404Z,23.10
2023-04-28T05:26:18.419Z,23.09
2023-04-28T05:27:18.422Z,23.10
2023-04-28T05:28:19.595Z,23.09
2023-04-28T05:29:18.430Z,23.09
2023-04-28T05:30:18.446Z,23.07
2023-04-28T05:31:18.469Z,23.07
2023-04-28T05:32:18.898Z,23.07
2023-04-28T05:33:18.452Z,23.06
2023-04-28T05:34:18.570Z,23.06
2023-04-28T05:35:18.460Z,23.07
2023-04-28T05:36:18.480Z,23.07
2023-04-28T05:37:18.706Z,23.07
2023-04-28T05:38:18.457Z,23.08
2023-04-28T05:39:18.563Z,23.09
2023-04-28T05:40:18.493Z,23.00
2023-04-28T05:41:18.669Z,22.72
2023-04-28T05:42:18.642Z,22.40
2023-04-28T05:43:18.520Z,22.21
2023-04-28T05:44:18.622Z,21.90
2023-04-28T05:45:18.679Z,21.67
2023-04-28T05:46:30.142Z,21.55
2023-04-28T05:47:19.726Z,21.35
2023-04-28T05:48:18.868Z,21.31
2023-04-28T05:49:18.696Z,21.25
2023-04-28T05:50:18.719Z,21.25
2023-04-28T05:51:18.775Z,21.22
2023-04-28T05:52:18.775Z,21.27
2023-04-28T05:53:18.793Z,21.32
2023-04-28T05:54:19.037Z,21.34
2023-04-28T05:55:18.843Z,21.31
2023-04-28T05:56:18.895Z,21.23
2023-04-28T05:57:18.904Z,21.25
2023-04-28T05:58:18.925Z,21.27
2023-04-28T05:59:19.070Z,21.20
2023-04-28T06:00:18.971Z,21.22
2023-04-28T06:01:19.001Z,21.15
2023-04-28T06:02:20.439Z,21.14
2023-04-28T06:03:19.258Z,21.10
2023-04-28T06:04:20.137Z,21.07
2023-04-28T06:05:19.392Z,21.02
2023-04-28T06:06:19.156Z,20.98
2023-04-28T06:07:19.176Z,20.90
2023-04-28T06:08:19.207Z,20.86
2023-04-28T06:09:19.311Z,20.86
2023-04-28T06:10:19.243Z,20.85
2023-04-28T06:11:19.289Z,20.84
2023-04-28T06:12:19.320Z,20.83
2023-04-28T06:13:19.350Z,20.81
2023-04-28T06:14:19.628Z,20.80
2023-04-28T06:15:19.413Z,20.78
2023-04-28T06:16:19.447Z,20.76
2023-04-28T06:17:19.563Z,20.72
2023-04-28T06:18:19.490Z,20.71
2023-04-28T06:19:19.585Z,20.72
2023-04-28T06:20:19.589Z,20.74
2023-04-28T06:21:19.569Z,20.67
2023-04-28T06:22:19.609Z,20.66
2023-04-28T06:23:19.643Z,20.62
2023-04-28T06:24:19.810Z,20.63
2023-04-28T06:25:19.741Z,20.59
2023-04-28T06:26:19.791Z,20.61
2023-04-28T06:27:19.833Z,20.59
2023-04-28T06:28:22.443Z,20.56
2023-04-28T06:29:20.159Z,20.58
2023-04-28T06:30:20.235Z,20.59
2023-04-28T06:31:20.369Z,20.59
2023-04-28T06:32:20.434Z,20.58
2023-04-28T06:33:20.483Z,20.58
2023-04-28T06:34:20.554Z,20.55
2023-04-28T06:35:20.652Z,20.54
2023-04-28T06:36:20.807Z,20.50
2023-04-28T06:37:20.890Z,20.47
2023-04-28T06:38:20.946Z,20.41
2023-04-28T06:39:20.997Z,20.39
2023-04-28T06:40:21.081Z,20.50
2023-04-28T06:41:21.224Z,20.62
2023-04-28T06:42:21.269Z,20.73
2023-04-28T06:43:21.452Z,20.85
2023-04-28T06:44:21.453Z,20.96
2023-04-28T06:45:21.602Z,21.05
2023-04-28T06:46:21.623Z,21.15
2023-04-28T06:47:21.733Z,21.24
2023-04-28T06:48:21.706Z,21.33
2023-04-28T06:49:22.490Z,21.44
2023-04-28T06:50:21.811Z,21.53
2023-04-28T06:51:21.878Z,21.63
2023-04-28T06:52:27.231Z,21.71
2023-04-28T06:53:22.857Z,21.78
2023-04-28T06:54:21.867Z,21.84
2023-04-28T06:55:21.870Z,21.88
2023-04-28T06:56:21.901Z,21.91
2023-04-28T06:57:22.007Z,21.94
2023-04-28T06:58:21.920Z,21.96
2023-04-28T06:59:21.907Z,21.99
2023-04-28T07:00:21.949Z,22.01
2023-04-28T07:01:22.081Z,22.02
2023-04-28T07:02:22.261Z,22.04
2023-04-28T07:03:22.090Z,22.06
2023-04-28T07:04:22.708Z,22.08
2023-04-28T07:05:22.096Z,22.09
2023-04-28T07:06:22.055Z,22.10
2023-04-28T07:07:22.059Z,22.11
2023-04-28T07:08:22.077Z,22.12
2023-04-28T07:09:22.064Z,22.13
2023-04-28T07:10:22.127Z,22.14
2023-04-28T07:11:22.084Z,22.16
2023-04-28T07:12:22.523Z,22.16
2023-04-28T07:13:22.092Z,22.17
2023-04-28T07:14:22.112Z,22.18
2023-04-28T07:15:22.167Z,22.20
2023-04-28T07:16:22.301Z,22.21
2023-04-28T07:17:22.487Z,22.24
2023-04-28T07:18:22.389Z,22.26
2023-04-28T07:19:22.353Z,22.27
2023-04-28T07:20:22.419Z,22.26
2023-04-28T07:21:22.490Z,22.28
2023-04-28T07:22:22.813Z,22.30
2023-04-28T07:23:22.562Z,22.32
2023-04-28T07:24:22.577Z,22.34
2023-04-28T07:25:22.597Z,22.35
2023-04-28T07:26:23.482Z,22.36
2023-04-28T07:27:22.683Z,22.37
2023-04-28T07:28:22.755Z,22.37
2023-04-28T07:29:22.749Z,22.39
2023-04-28T07:30:27.911Z,22.41
2023-04-28T07:31:23.800Z,22.42
2023-04-28T07:32:24.068Z,22.44
2023-04-28T07:33:22.951Z,22.46
2023-04-28T07:34:22.821Z,22.48
2023-04-28T07:35:22.843Z,22.48
2023-04-28T07:36:22.803Z,22.48
2023-04-28T07:37:22.816Z,22.50
2023-04-28T07:38:23.545Z,22.52
2023-04-28T07:39:22.817Z,22.50
2023-04-28T07:40:23.612Z,22.49
2023-04-28T07:41:22.859Z,22.46
2023-04-28T07:42:22.861Z,22.42
2023-04-28T07:43:22.828Z,22.40
2023-04-28T07:44:22.851Z,22.38
2023-04-28T07:45:22.858Z,22.38
2023-04-28T07:46:22.982Z,22.39
2023-04-28T07:47:23.052Z,22.42
2023-04-28T07:48:23.119Z,22.46
2023-04-28T07:49:24.070Z,22.49
2023-04-28T07:50:23.317Z,22.54
2023-04-28T07:51:23.269Z,22.59
2023-04-28T07:52:23.302Z,22.62
2023-04-28T07:53:23.284Z,22.65
2023-04-28T07:54:23.320Z,22.67
2023-04-28T07:55:23.312Z,22.68
2023-04-28T07:56:23.322Z,22.71
2023-04-28T07:57:23.350Z,22.72
2023-04-28T07:58:23.355Z,22.73
2023-04-28T07:59:23.398Z,22.74
2023-04-28T08:00:23.423Z,22.74
2023-04-28T08:01:23.412Z,22.75
2023-04-28T08:02:26.160Z,22.76
2023-04-28T08:03:23.543Z,22.76
2023-04-28T08:04:23.807Z,22.78
2023-04-28T08:05:23.689Z,22.79
2023-04-28T08:06:23.409Z,22.79
2023-04-28T08:07:23.431Z,22.79
2023-04-28T08:08:23.412Z,22.81
2023-04-28T08:09:23.431Z,22.83
2023-04-28T08:10:23.429Z,22.83
2023-04-28T08:11:23.431Z,22.83
2023-04-28T08:12:23.487Z,22.82
2023-04-28T08:13:23.454Z,22.83
2023-04-28T08:14:23.438Z,22.83
2023-04-28T08:15:23.441Z,22.83
2023-04-28T08:16:23.649Z,22.83
2023-04-28T08:17:23.503Z,22.83
2023-04-28T08:18:24.180Z,22.82
2023-04-28T08:19:23.558Z,22.82
2023-04-28T08:20:24.846Z,22.83
2023-04-28T08:21:23.685Z,22.83
2023-04-28T08:22:23.721Z,22.84
2023-04-28T08:23:23.834Z,22.85
2023-04-28T08:24:23.793Z,22.85
2023-04-28T08:25:23.864Z,22.86
2023-04-28T08:26:24.146Z,22.87
2023-04-28T08:27:24.003Z,22.88
2023-04-28T08:28:24.026Z,22.87
2023-04-28T08:29:24.087Z,22.87
2023-04-28T08:30:24.130Z,22.85
2023-04-28T08:31:24.272Z,22.87
2023-04-28T08:32:24.252Z,22.87
2023-04-28T08:33:24.352Z,22.87
2023-04-28T08:34:24.438Z,22.89
2023-04-28T08:35:24.403Z,22.90
2023-04-28T08:36:24.484Z,22.89
2023-04-28T08:37:24.493Z,22.88
2023-04-28T08:38:24.585Z,22.90
2023-04-28T08:39:24.617Z,22.91
2023-04-28T08:40:24.653Z,22.93
2023-04-28T08:41:24.669Z,22.94
2023-04-28T08:42:24.863Z,22.96
2023-04-28T08:43:24.844Z,22.97
2023-04-28T08:44:24.776Z,22.98
2023-04-28T08:45:27.874Z,22.99
2023-04-28T08:46:24.858Z,23.00
2023-04-28T08:47:24.828Z,23.02
2023-04-28T08:48:24.821Z,23.03
2023-04-28T08:49:24.897Z,23.05
2023-04-28T08:50:24.824Z,23.07
2023-04-28T08:51:24.871Z,23.08
2023-04-28T08:52:24.859Z,23.11
2023-04-28T08:53:24.851Z,23.12
2023-04-28T08:54:26.698Z,23.14
2023-04-28T08:55:24.882Z,23.15
2023-04-28T08:56:24.867Z,23.17
2023-04-28T08:57:24.882Z,23.17
2023-04-28T08:58:24.891Z,23.18
2023-04-28T08:59:25.518Z,23.20
2023-04-28T09:00:24.902Z,23.22
2023-04-28T09:01:24.924Z,23.23
2023-04-28T09:02:25.124Z,23.25
2023-04-28T09:03:25.031Z,23.25
2023-04-28T09:04:25.461Z,23.26
2023-04-28T09:05:25.041Z,23.27
2023-04-28T09:06:24.894Z,23.28
2023-04-28T09:07:24.913Z,23.28
2023-04-28T09:08:24.999Z,23.29
2023-04-28T09:09:25.012Z,23.30
2023-04-28T09:10:24.993Z,23.30
2023-04-28T09:11:25.013Z,23.31
2023-04-28T09:12:25.026Z,23.32
2023-04-28T09:13:25.040Z,23.32
2023-04-28T09:14:25.068Z,23.33
2023-04-28T09:15:25.065Z,23.35
2023-04-28T09:16:25.139Z,23.35
2023-04-28T09:17:26.514Z,23.36
2023-04-28T09:18:25.124Z,23.38
2023-04-28T09:19:25.144Z,23.39
2023-04-28T09:20:25.140Z,23.39
2023-04-28T09:21:25.212Z,23.40
2023-04-28T09:22:26.829Z,23.41
2023-04-28T09:23:25.154Z,23.42
2023-04-28T09:24:25.173Z,23.43
2023-04-28T09:25:25.151Z,23.43
2023-04-28T09:26:25.153Z,23.44
2023-04-28T09:27:25.170Z,23.45
2023-04-28T09:28:25.159Z,23.44
2023-04-28T09:29:25.130Z,23.46
2023-04-28T09:30:25.201Z,23.48
2023-04-28T09:31:25.349Z,23.48
2023-04-28T09:32:25.344Z,23.48
2023-04-28T09:33:25.165Z,23.48
2023-04-28T09:34:25.153Z,23.49
2023-04-28T09:35:26.046Z,23.50
2023-04-28T09:36:25.148Z,23.52
2023-04-28T09:37:25.147Z,23.53
2023-04-28T09:38:25.136Z,23.54
2023-04-28T09:39:25.201Z,23.54
2023-04-28T09:40:25.114Z,23.55
2023-04-28T09:41:25.116Z,23.56
2023-04-28T09:42:25.130Z,23.56
2023-04-28T09:43:25.128Z,23.57
2023-04-28T09:44:25.164Z,23.58
2023-04-28T09:45:25.221Z,23.58
2023-04-28T09:46:25.118Z,23.58
2023-04-28T09:47:25.258Z,23.59
2023-04-28T09:48:25.161Z,23.59
2023-04-28T09:49:25.079Z,23.59
2023-04-28T09:50:25.065Z,23.60
2023-04-28T09:51:25.073Z,23.60
2023-04-28T09:52:25.091Z,23.60
2023-04-28T09:53:25.052Z,23.60
2023-04-28T09:54:25.076Z,23.61
2023-04-28T09:55:25.141Z,23.62
2023-04-28T09:56:25.030Z,23.64
2023-04-28T09:57:25.089Z,23.64
2023-04-28T09:58:25.094Z,23.64
2023-04-28T09:59:24.989Z,23.65
2023-04-28T10:00:25.013Z,23.66
2023-04-28T10:01:25.041Z,23.67
2023-04-28T10:02:42.720Z,23.67
2023-04-28T10:03:27.748Z,23.67
2023-04-28T10:04:25.109Z,23.69
2023-04-28T10:05:25.266Z,23.71
2023-04-28T10:06:25.001Z,23.72
2023-04-28T10:07:25.012Z,23.72
2023-04-28T10:08:25.328Z,23.73
2023-04-28T10:09:25.017Z,23.73
2023-04-28T10:10:25.084Z,23.73
2023-04-28T10:11:24.935Z,23.73
2023-04-28T10:12:24.943Z,23.73
2023-04-28T10:13:24.959Z,23.74
2023-04-28T10:14:24.944Z,23.74
2023-04-28T10:15:25.580Z,23.76
2023-04-28T10:16:24.942Z,23.75
2023-04-28T10:17:24.916Z,23.76
2023-04-28T10:18:24.944Z,23.76
2023-04-28T10:19:24.938Z,23.77
2023-04-28T10:20:24.962Z,23.77
2023-04-28T10:21:24.905Z,23.79
2023-04-28T10:22:24.881Z,23.79
2023-04-28T10:23:24.908Z,23.80
2023-04-28T10:24:24.922Z,23.81
2023-04-28T10:25:24.924Z,23.82
2023-04-28T10:26:24.906Z,23.82
2023-04-28T10:27:24.877Z,23.83
2023-04-28T10:28:24.910Z,23.84
2023-04-28T10:29:24.987Z,23.84
2023-04-28T10:30:28.816Z,23.84
2023-04-28T10:31:24.903Z,23.84
2023-04-28T10:32:24.887Z,23.85
2023-04-28T10:33:25.400Z,23.85
2023-04-28T10:34:24.849Z,23.85
2023-04-28T10:35:24.887Z,23.86
2023-04-28T10:36:35.725Z,23.87
2023-04-28T10:37:25.886Z,23.88
2023-04-28T10:38:24.849Z,23.89
2023-04-28T10:39:24.877Z,23.88
2023-04-28T10:40:24.835Z,23.89
2023-04-28T10:41:24.822Z,23.89
2023-04-28T10:42:24.809Z,23.89
2023-04-28T10:43:24.973Z,23.88
2023-04-28T10:44:24.906Z,23.89
2023-04-28T10:45:24.895Z,23.90
2023-04-28T10:46:24.915Z,23.90
2023-04-28T10:47:24.953Z,23.91
2023-04-28T10:48:25.008Z,23.92
2023-04-28T10:49:25.088Z,23.93
2023-04-28T10:50:36.172Z,23.93
2023-04-28T10:51:27.050Z,23.93
2023-04-28T10:52:25.109Z,23.95
2023-04-28T10:53:25.219Z,23.96
2023-04-28T10:54:25.089Z,23.97
2023-04-28T10:55:25.082Z,23.97
2023-04-28T10:56:25.070Z,23.98
2023-04-28T10:57:25.069Z,23.98
2023-04-28T10:58:25.063Z,23.99
2023-04-28T10:59:25.063Z,23.98
2023-04-28T11:00:25.179Z,23.99
2023-04-28T11:01:25.313Z,24.00
2023-04-28T11:02:25.374Z,24.00
2023-04-28T11:03:25.549Z,24.01
2023-04-28T11:04:25.578Z,24.01
2023-04-28T11:05:25.383Z,24.01
2023-04-28T11:06:26.066Z,24.02
2023-04-28T11:07:25.499Z,24.02
2023-04-28T11:08:25.537Z,24.03
2023-04-28T11:09:25.547Z,24.03
2023-04-28T11:10:25.502Z,24.02
2023-04-28T11:11:25.503Z,24.03
2023-04-28T11:12:25.492Z,24.03
2023-04-28T11:13:25.585Z,24.05
2023-04-28T11:14:25.507Z,24.07
2023-04-28T11:15:25.462Z,24.07
2023-04-28T11:16:25.523Z,24.08
2023-04-28T11:17:25.443Z,24.08
2023-04-28T11:18:25.450Z,24.08
2023-04-28T11:19:25.454Z,24.09
2023-04-28T11:20:25.413Z,24.09
2023-04-28T11:21:25.463Z,24.11
2023-04-28T11:22:25.422Z,24.11
2023-04-28T11:23:25.491Z,24.11
2023-04-28T11:24:25.380Z,24.11
2023-04-28T11:25:25.455Z,24.11
2023-04-28T11:26:25.432Z,24.10
2023-04-28T11:27:25.399Z,24.11
2023-04-28T11:28:25.384Z,24.11
2023-04-28T11:29:25.391Z,24.12
2023-04-28T11:30:25.388Z,24.13
2023-04-28T11:31:25.432Z,24.13
2023-04-28T11:32:25.311Z,24.15
2023-04-28T11:33:25.294Z,24.15
2023-04-28T11:34:25.287Z,24.17
2023-04-28T11:35:25.267Z,24.16
2023-04-28T11:36:25.267Z,24.18
2023-04-28T11:37:25.272Z,24.19
2023-04-28T11:38:25.222Z,24.20
2023-04-28T11:39:25.203Z,24.20
2023-04-28T11:40:25.199Z,24.20
2023-04-28T11:41:25.175Z,24.23
2023-04-28T11:42:25.205Z,24.23
2023-04-28T11:43:28.959Z,24.24
2023-04-28T11:44:26.165Z,24.26
2023-04-28T11:45:25.146Z,24.26
2023-04-28T11:46:25.257Z,24.27
2023-04-28T11:47:25.155Z,24.28
2023-04-28T11:48:25.139Z,24.30
2023-04-28T11:49:25.120Z,24.32
2023-04-28T11:50:25.117Z,24.32
2023-04-28T11:51:25.088Z,24.32
2023-04-28T11:52:25.087Z,24.33
2023-04-28T11:53:25.056Z,24.33
2023-04-28T11:54:25.113Z,24.33
2023-04-28T11:55:25.059Z,24.33
2023-04-28T11:56:25.096Z,24.34
2023-04-28T11:57:25.133Z,24.35
2023-04-28T11:58:25.207Z,24.35
2023-04-28T12:00:25.212Z,24.37
2023-04-28T12:01:25.241Z,24.37
2023-04-28T12:02:25.393Z,24.38
2023-04-28T12:03:25.449Z,24.38
2023-04-28T12:04:25.369Z,24.39
2023-04-28T12:05:25.402Z,24.37
2023-04-28T12:06:25.388Z,24.39
2023-04-28T12:07:25.445Z,24.38
2023-04-28T12:08:25.426Z,24.39
2023-04-28T12:09:25.461Z,24.40
2023-04-28T12:10:25.456Z,24.39
2023-04-28T12:11:25.924Z,24.38
2023-04-28T12:12:30.701Z,24.38
2023-04-28T12:13:26.442Z,24.36
2023-04-28T12:14:25.406Z,24.37
2023-04-28T12:15:25.401Z,24.37
2023-04-28T12:16:25.407Z,24.37
2023-04-28T12:17:25.392Z,24.37
2023-04-28T12:18:25.362Z,24.39
2023-04-28T12:19:25.404Z,24.39
2023-04-28T12:20:25.343Z,24.39
2023-04-28T12:21:25.343Z,24.38
2023-04-28T12:22:25.312Z,24.39
2023-04-28T12:23:25.649Z,24.39
2023-04-28T12:24:25.277Z,24.40
2023-04-28T12:25:25.285Z,24.40
2023-04-28T12:26:25.276Z,24.40
2023-04-28T12:27:26.098Z,24.40
2023-04-28T12:28:25.668Z,24.40
2023-04-28T12:29:25.386Z,24.41
2023-04-28T12:30:25.335Z,24.42
2023-04-28T12:31:25.385Z,24.42
2023-04-28T12:32:25.378Z,24.43
2023-04-28T12:33:25.387Z,24.44
2023-04-28T12:34:25.328Z,24.46
2023-04-28T12:35:25.329Z,24.46
2023-04-28T12:36:25.297Z,24.47
2023-04-28T12:37:25.304Z,24.48
2023-04-28T12:38:25.476Z,24.49
2023-04-28T12:39:25.272Z,24.50
2023-04-28T12:40:25.261Z,24.49
2023-04-28T12:41:25.258Z,24.49
2023-04-28T12:42:25.230Z,24.49
2023-04-28T12:43:25.237Z,24.49
2023-04-28T12:44:25.208Z,24.49
2023-04-28T12:45:25.179Z,24.50
2023-04-28T12:46:25.199Z,24.50
2023-04-28T12:47:25.198Z,24.50
2023-04-28T12:48:25.380Z,24.52
2023-04-28T12:49:25.152Z,24.52
2023-04-28T12:50:25.189Z,24.52
2023-04-28T12:51:25.155Z,24.53
2023-04-28T12:52:25.182Z,24.52
2023-04-28T12:53:25.198Z,24.53
2023-04-28T12:54:25.225Z,24.54
2023-04-28T12:55:25.238Z,24.56